createdAt,value
2023-03-21T00:01:56.722Z,9.80
2023-03-21T00:04:33.204Z,9.80
2023-03-21T00:07:07.743Z,9.73
2023-03-21T00:09:37.787Z,9.78
2023-03-21T00:12:10.197Z,9.84
2023-03-21T00:14:39.631Z,9.89
2023-03-21T00:17:11.335Z,9.95
2023-03-21T00:19:41.773Z,9.96
2023-03-21T00:22:11.475Z,10.01
2023-03-21T00:24:41.559Z,10.05
2023-03-21T00:27:38.334Z,10.04
2023-03-21T00:30:00.070Z,10.04
2023-03-21T00:32:30.066Z,10.12
2023-03-21T00:35:16.575Z,10.21
2023-03-21T00:37:48.608Z,10.21
2023-03-21T00:40:29.172Z,10.24
2023-03-21T00:43:00.787Z,10.25
2023-03-21T00:45:30.157Z,10.30
2023-03-21T00:47:59.696Z,10.27
2023-03-21T00:50:29.030Z,10.14
2023-03-21T00:52:59.043Z,10.03
2023-03-21T00:55:28.026Z,9.92
2023-03-21T00:58:02.138Z,9.79
2023-03-21T01:00:33.727Z,9.69
2023-03-21T01:03:23.287Z,9.70
2023-03-21T01:06:07.926Z,9.65
2023-03-21T01:08:51.896Z,9.60
2023-03-21T01:11:26.146Z,9.56
2023-03-21T01:14:07.172Z,9.58
2023-03-21T01:16:41.877Z,9.51
2023-03-21T01:19:25.055Z,9.48
2023-03-21T01:21:58.769Z,9.38
2023-03-21T01:24:28.622Z,9.35
2023-03-21T01:26:57.878Z,9.35
2023-03-21T01:29:27.514Z,9.35
2023-03-21T01:31:57.039Z,9.32
2023-03-21T01:34:26.754Z,9.33
2023-03-21T01:36:56.971Z,9.36
2023-03-21T01:39:26.815Z,9.37
2023-03-21T01:41:56.131Z,9.36
2023-03-21T01:44:25.542Z,9.34
2023-03-21T01:47:12.457Z,9.28
2023-03-21T01:49:46.824Z,9.15
2023-03-21T01:52:35.340Z,9.10
2023-03-21T01:55:12.233Z,9.07
2023-03-21T01:58:02.105Z,9.17
2023-03-21T02:00:34.747Z,9.16
2023-03-21T02:03:15.305Z,9.13
2023-03-21T02:06:03.424Z,9.05
2023-03-21T02:08:39.598Z,8.90
2023-03-21T02:11:10.578Z,8.75
2023-03-21T02:13:39.887Z,8.70
2023-03-21T02:16:30.906Z,8.75
2023-03-21T02:19:29.599Z,8.80
2023-03-21T02:22:38.058Z,8.81
2023-03-21T02:25:39.510Z,8.74
2023-03-21T02:28:25.442Z,8.79
2023-03-21T02:30:54.776Z,8.79
2023-03-21T02:34:02.096Z,8.80
2023-03-21T02:36:49.420Z,8.68
2023-03-21T02:39:24.082Z,8.65
2023-03-21T02:42:08.388Z,8.69
2023-03-21T02:44:46.881Z,8.68
2023-03-21T02:47:26.212Z,8.68
2023-03-21T02:50:16.657Z,8.74
2023-03-21T02:52:48.820Z,8.75
2023-03-21T02:55:22.907Z,8.79
2023-03-21T02:57:54.697Z,8.82
2023-03-21T03:00:27.772Z,8.89
2023-03-21T03:03:07.832Z,8.94
2023-03-21T03:05:49.789Z,8.91
2023-03-21T03:09:01.841Z,8.81
2023-03-21T03:11:38.699Z,8.69
2023-03-21T03:14:46.435Z,8.70
2023-03-21T03:17:18.529Z,8.50
2023-03-21T03:20:06.975Z,8.45
2023-03-21T03:22:47.133Z,8.40
2023-03-21T03:25:32.619Z,8.39
2023-03-21T03:28:10.664Z,8.34
2023-03-21T03:30:46.570Z,8.33
2023-03-21T03:33:23.936Z,8.34
2023-03-21T03:36:04.828Z,8.37
2023-03-21T03:38:37.450Z,8.38
2023-03-21T03:41:15.857Z,8.36
2023-03-21T03:43:53.984Z,8.38
2023-03-21T03:46:29.461Z,8.40
2023-03-21T03:49:06.642Z,8.45
2023-03-21T03:51:47.634Z,8.42
2023-03-21T03:54:22.952Z,8.45
2023-03-21T03:56:52.953Z,8.51
2023-03-21T03:59:25.680Z,8.53
2023-03-21T04:01:54.714Z,8.44
2023-03-21T04:04:29.019Z,8.37
2023-03-21T04:06:59.286Z,8.20
2023-03-21T04:09:43.173Z,8.14
2023-03-21T04:12:14.095Z,8.00
2023-03-21T04:14:46.034Z,8.01
2023-03-21T04:17:17.054Z,8.05
2023-03-21T04:19:46.868Z,8.10
2023-03-21T04:22:16.041Z,8.03
2023-03-21T04:24:45.354Z,8.02
2023-03-21T04:27:15.298Z,8.04
2023-03-21T04:29:44.742Z,8.08
2023-03-21T04:32:25.042Z,8.14
2023-03-21T04:34:54.521Z,8.09
2023-03-21T04:37:28.524Z,8.15
2023-03-21T04:39:57.187Z,8.17
2023-03-21T04:42:26.416Z,8.14
2023-03-21T04:44:55.386Z,8.07
2023-03-21T04:47:24.352Z,8.01
2023-03-21T04:49:54.044Z,7.98
2023-03-21T04:52:25.262Z,8.00
2023-03-21T04:54:54.287Z,8.01
2023-03-21T04:57:22.932Z,7.96
2023-03-21T04:59:51.711Z,7.90
2023-03-21T05:02:20.215Z,7.86
2023-03-21T05:04:49.035Z,7.87
2023-03-21T05:07:17.778Z,7.82
2023-03-21T05:09:46.707Z,7.77
2023-03-21T05:12:16.172Z,7.78
2023-03-21T05:14:45.005Z,7.82
2023-03-21T05:17:15.934Z,7.78
2023-03-21T05:19:45.018Z,7.67
2023-03-21T05:22:14.635Z,7.59
2023-03-21T05:24:43.371Z,7.53
2023-03-21T05:27:14.737Z,7.52
2023-03-21T05:29:43.678Z,7.51
2023-03-21T05:32:12.587Z,7.52
2023-03-21T05:34:41.777Z,7.55
2023-03-21T05:37:10.964Z,7.67
2023-03-21T05:39:40.187Z,7.78
2023-03-21T05:42:10.031Z,7.75
2023-03-21T05:44:40.951Z,7.72
2023-03-21T05:47:10.431Z,7.70
2023-03-21T05:49:40.126Z,7.70
2023-03-21T05:52:09.596Z,7.67
2023-03-21T05:54:38.985Z,7.74
2023-03-21T05:57:08.051Z,7.87
2023-03-21T05:59:37.344Z,7.94
2023-03-21T06:02:06.543Z,7.85
2023-03-21T06:04:35.579Z,7.73
2023-03-21T06:07:04.691Z,7.71
2023-03-21T06:09:34.959Z,7.77
2023-03-21T06:12:04.303Z,7.77
2023-03-21T06:14:33.290Z,7.76
2023-03-21T06:17:01.774Z,7.75
2023-03-21T06:19:30.625Z,7.87
2023-03-21T06:21:59.629Z,7.98
2023-03-21T06:24:29.076Z,8.07
2023-03-21T06:26:57.954Z,8.14
2023-03-21T06:29:26.982Z,8.32
2023-03-21T06:31:56.379Z,8.61
2023-03-21T06:34:27.011Z,8.82
2023-03-21T06:36:55.937Z,8.94
2023-03-21T06:39:25.408Z,9.06
2023-03-21T06:41:54.516Z,9.26
2023-03-21T06:44:25.170Z,9.58
2023-03-21T06:46:54.110Z,9.90
2023-03-21T06:49:23.566Z,10.17
2023-03-21T06:51:52.844Z,10.45
2023-03-21T06:54:22.350Z,10.97
2023-03-21T06:56:51.735Z,12.37
2023-03-21T06:59:21.275Z,13.11
2023-03-21T07:01:50.304Z,13.30
2023-03-21T07:04:19.034Z,13.86
2023-03-21T07:06:48.084Z,14.48
2023-03-21T07:09:18.588Z,15.32
2023-03-21T07:11:48.216Z,15.33
2023-03-21T07:14:17.369Z,15.56
2023-03-21T07:16:46.435Z,16.66
2023-03-21T07:19:16.350Z,18.01
2023-03-21T07:21:45.559Z,19.06
2023-03-21T07:24:15.604Z,19.92
2023-03-21T07:26:44.788Z,20.56
2023-03-21T07:29:13.878Z,21.11
2023-03-21T07:31:43.208Z,21.64
2023-03-21T07:34:12.878Z,22.01
2023-03-21T07:36:41.751Z,22.57
2023-03-21T07:39:10.836Z,22.94
2023-03-21T07:41:39.949Z,22.99
2023-03-21T07:44:09.190Z,23.50
2023-03-21T07:46:37.954Z,24.04
2023-03-21T07:49:09.601Z,24.60
2023-03-21T07:51:38.926Z,24.81
2023-03-21T07:54:08.310Z,24.41
2023-03-21T07:56:38.077Z,24.83
2023-03-21T07:59:07.969Z,25.02
2023-03-21T08:01:37.821Z,24.90
2023-03-21T08:04:07.499Z,25.41
2023-03-21T08:06:37.521Z,25.03
2023-03-21T08:09:08.174Z,24.67
2023-03-21T08:11:37.731Z,24.95
2023-03-21T08:14:07.834Z,24.11
2023-03-21T08:16:36.824Z,23.13
2023-03-21T08:19:05.759Z,23.37
2023-03-21T08:21:34.489Z,23.48
2023-03-21T08:24:03.199Z,24.15
2023-03-21T08:26:32.689Z,24.25
2023-03-21T08:29:01.658Z,24.03
2023-03-21T08:31:30.899Z,23.47
2023-03-21T08:33:59.725Z,22.89
2023-03-21T08:36:28.998Z,22.29
2023-03-21T08:39:05.705Z,21.94
2023-03-21T08:41:37.076Z,21.86
2023-03-21T08:44:07.718Z,23.41
2023-03-21T08:46:37.414Z,25.16
2023-03-21T08:49:06.843Z,26.61
2023-03-21T08:51:38.405Z,27.60
2023-03-21T08:54:08.583Z,28.74
2023-03-21T08:56:37.909Z,29.76
2023-03-21T08:59:07.348Z,30.21
2023-03-21T09:01:36.365Z,30.88
2023-03-21T09:04:08.214Z,31.18
2023-03-21T09:06:38.469Z,31.73
2023-03-21T09:09:09.405Z,30.65
2023-03-21T09:11:39.488Z,30.26
2023-03-21T09:14:12.243Z,30.26
2023-03-21T09:16:41.954Z,30.64
2023-03-21T09:19:12.549Z,30.80
2023-03-21T09:21:41.861Z,29.43
2023-03-21T09:24:13.282Z,29.17
2023-03-21T09:26:44.553Z,30.25
2023-03-21T09:29:13.845Z,30.48
2023-03-21T09:31:44.011Z,31.56
2023-03-21T09:34:16.187Z,32.46
2023-03-21T09:36:45.220Z,32.83
2023-03-21T09:39:14.847Z,31.40
2023-03-21T09:42:01.767Z,29.76
2023-03-21T09:44:44.190Z,29.26
2023-03-21T09:47:29.673Z,30.59
2023-03-21T09:50:14.110Z,30.57
2023-03-21T09:53:11.149Z,28.65
2023-03-21T09:55:41.987Z,26.77
2023-03-21T09:58:33.974Z,25.95
2023-03-21T10:01:27.870Z,25.21
2023-03-21T10:04:01.562Z,25.55
2023-03-21T10:06:32.407Z,25.71
2023-03-21T10:09:07.774Z,25.06
2023-03-21T10:12:15.316Z,24.34
2023-03-21T10:14:58.473Z,23.00
2023-03-21T10:17:33.097Z,22.73
2023-03-21T10:20:13.765Z,23.25
2023-03-21T10:22:46.698Z,22.74
2023-03-21T10:25:19.128Z,22.06
2023-03-21T10:27:51.288Z,22.01
2023-03-21T10:30:36.690Z,22.70
2023-03-21T10:33:13.088Z,25.07
2023-03-21T10:35:47.359Z,24.41
2023-03-21T10:38:20.818Z,23.92
2023-03-21T10:40:51.219Z,23.42
2023-03-21T10:43:35.900Z,23.48
2023-03-21T10:46:28.091Z,25.16
2023-03-21T10:48:57.785Z,27.62
2023-03-21T10:51:32.594Z,29.80
2023-03-21T10:54:07.082Z,31.34
2023-03-21T10:56:44.824Z,30.35
2023-03-21T10:59:21.925Z,29.22
2023-03-21T11:01:56.566Z,28.59
2023-03-21T11:04:30.348Z,27.83
2023-03-21T11:07:04.117Z,26.54
2023-03-21T11:09:46.861Z,26.65
2023-03-21T11:12:34.155Z,26.37
2023-03-21T11:15:15.819Z,25.36
2023-03-21T11:17:46.143Z,24.83
2023-03-21T11:20:22.321Z,25.70
2023-03-21T11:22:56.461Z,28.09
2023-03-21T11:25:44.187Z,29.15
2023-03-21T11:28:17.931Z,27.34
2023-03-21T11:30:55.257Z,26.46
2023-03-21T11:33:29.848Z,25.74
2023-03-21T11:36:28.284Z,25.24
2023-03-21T11:39:00.320Z,25.40
2023-03-21T11:41:32.205Z,27.24
2023-03-21T11:44:03.438Z,28.37
2023-03-21T11:46:40.481Z,29.34
2023-03-21T11:49:11.128Z,28.26
2023-03-21T11:51:50.336Z,27.40
2023-03-21T11:54:49.291Z,28.86
2023-03-21T11:57:28.085Z,30.48
2023-03-21T12:00:23.210Z,31.87
2023-03-21T12:03:10.002Z,32.64
2023-03-21T12:05:52.269Z,31.29
2023-03-21T12:08:30.514Z,30.17
2023-03-21T12:11:12.133Z,29.60
2023-03-21T12:14:23.622Z,28.96
2023-03-21T12:17:25.024Z,28.74
2023-03-21T12:20:06.272Z,29.39
2023-03-21T12:22:42.422Z,30.27
2023-03-21T12:25:30.010Z,30.65
2023-03-21T12:28:32.571Z,29.79
2023-03-21T12:31:23.954Z,29.70
2023-03-21T12:34:39.162Z,29.33
2023-03-21T12:37:29.997Z,30.43
2023-03-21T12:40:37.120Z,31.98
2023-03-21T12:43:25.407Z,32.49
2023-03-21T12:46:01.859Z,33.43
2023-03-21T12:48:47.934Z,34.10
2023-03-21T12:51:23.514Z,34.45
2023-03-21T12:54:24.109Z,33.91
2023-03-21T12:56:53.180Z,34.37
2023-03-21T12:59:38.725Z,35.10
2023-03-21T13:02:39.682Z,35.47
2023-03-21T13:05:29.730Z,34.41
2023-03-21T13:08:08.790Z,32.77
2023-03-21T13:10:42.718Z,33.45
2023-03-21T13:13:14.653Z,33.79
2023-03-21T13:16:19.098Z,33.70
2023-03-21T13:19:27.246Z,34.21
2023-03-21T13:22:00.247Z,34.72
2023-03-21T13:24:33.695Z,34.33
2023-03-21T13:27:08.558Z,33.71
2023-03-21T13:29:50.945Z,33.25
2023-03-21T13:32:32.591Z,33.36
2023-03-21T13:35:14.177Z,33.84
2023-03-21T13:37:53.139Z,34.09
2023-03-21T13:40:29.805Z,34.16
2023-03-21T13:43:04.158Z,34.04
2023-03-21T13:45:35.448Z,33.11
2023-03-21T13:48:26.082Z,32.27
2023-03-21T13:51:04.832Z,31.93
2023-03-21T13:53:38.682Z,32.65
2023-03-21T13:56:12.586Z,33.22
2023-03-21T13:58:44.965Z,32.39
2023-03-21T14:02:03.488Z,32.45
2023-03-21T14:04:41.906Z,30.60
2023-03-21T14:07:17.178Z,30.13
2023-03-21T14:09:53.543Z,29.46
2023-03-21T14:12:29.182Z,29.00
2023-03-21T14:15:16.297Z,28.39
2023-03-21T14:17:55.940Z,27.63
2023-03-21T14:20:34.398Z,27.39
2023-03-21T14:23:07.225Z,27.05
2023-03-21T14:25:46.703Z,27.30
2023-03-21T14:28:21.539Z,28.02
2023-03-21T14:30:55.221Z,28.85
2023-03-21T14:33:38.271Z,28.54
2023-03-21T14:36:14.866Z,27.77
2023-03-21T14:38:45.261Z,26.93
2023-03-21T14:41:27.126Z,26.43
2023-03-21T14:44:44.135Z,25.89
2023-03-21T14:47:30.389Z,25.43
2023-03-21T14:50:01.819Z,25.29
2023-03-21T14:52:34.851Z,25.11
2023-03-21T14:55:14.411Z,25.58
2023-03-21T14:57:43.851Z,26.29
2023-03-21T15:00:24.036Z,26.91
2023-03-21T15:02:55.994Z,27.30
2023-03-21T15:05:38.607Z,27.48
2023-03-21T15:08:23.256Z,27.04
2023-03-21T15:11:07.224Z,26.35
2023-03-21T15:13:55.420Z,25.69
2023-03-21T15:16:25.239Z,25.32
2023-03-21T15:18:54.831Z,25.01
2023-03-21T15:21:43.491Z,24.55
2023-03-21T15:24:23.214Z,23.78
2023-03-21T15:27:05.221Z,23.79
2023-03-21T15:29:37.479Z,24.25
2023-03-21T15:32:18.720Z,24.62
2023-03-21T15:34:48.806Z,24.80
2023-03-21T15:37:29.380Z,25.10
2023-03-21T15:40:17.998Z,25.24
2023-03-21T15:42:47.677Z,25.28
2023-03-21T15:45:25.190Z,25.40
2023-03-21T15:48:17.166Z,25.44
2023-03-21T15:50:56.181Z,25.23
2023-03-21T15:53:26.467Z,25.20
2023-03-21T15:56:02.784Z,25.25
2023-03-21T15:58:38.019Z,25.25
2023-03-21T16:01:13.915Z,25.28
2023-03-21T16:03:49.538Z,25.22
2023-03-21T16:06:22.553Z,25.19
2023-03-21T16:09:07.446Z,25.07
2023-03-21T16:11:49.186Z,24.89
2023-03-21T16:14:20.622Z,24.65
2023-03-21T16:16:51.045Z,24.55
2023-03-21T16:19:21.056Z,24.37
2023-03-21T16:21:50.680Z,24.30
2023-03-21T16:24:20.575Z,24.18
2023-03-21T16:26:54.675Z,24.10
2023-03-21T16:29:25.108Z,24.00
2023-03-21T16:31:55.476Z,23.77
2023-03-21T16:34:24.864Z,23.55
2023-03-21T16:36:55.010Z,23.29
2023-03-21T16:39:27.512Z,23.13
2023-03-21T16:41:57.452Z,22.86
2023-03-21T16:44:26.907Z,22.47
2023-03-21T16:46:55.990Z,22.14
2023-03-21T16:49:27.535Z,21.84
2023-03-21T16:51:57.951Z,21.58
2023-03-21T16:54:27.490Z,21.32
2023-03-21T16:57:00.000Z,21.10
2023-03-21T16:59:29.426Z,20.90
2023-03-21T17:01:59.203Z,20.71
2023-03-21T17:04:29.073Z,20.55
2023-03-21T17:06:59.415Z,20.35
2023-03-21T17:09:30.216Z,20.15
2023-03-21T17:12:00.224Z,19.93
2023-03-21T17:14:29.368Z,19.72
2023-03-21T17:16:59.545Z,19.49
2023-03-21T17:19:30.375Z,19.28
2023-03-21T17:22:00.505Z,19.13
2023-03-21T17:24:29.830Z,18.98
2023-03-21T17:27:01.141Z,18.82
2023-03-21T17:29:31.521Z,18.64
2023-03-21T17:32:00.666Z,18.44
2023-03-21T17:34:30.076Z,18.21
2023-03-21T17:36:59.664Z,18.01
2023-03-21T17:39:29.248Z,17.80
2023-03-21T17:41:58.364Z,17.61
2023-03-21T17:44:28.184Z,17.44
2023-03-21T17:46:57.586Z,17.30
2023-03-21T17:49:27.024Z,17.19
2023-03-21T17:51:56.259Z,17.05
2023-03-21T17:54:25.144Z,16.99
2023-03-21T17:56:56.140Z,16.89
2023-03-21T17:59:26.879Z,16.73
2023-03-21T18:01:57.055Z,16.58
2023-03-21T18:04:27.712Z,16.45
2023-03-21T18:07:01.091Z,16.33
2023-03-21T18:09:30.988Z,16.18
2023-03-21T18:12:02.142Z,16.05
2023-03-21T18:14:34.906Z,15.97
2023-03-21T18:17:04.352Z,15.91
2023-03-21T18:19:34.775Z,15.87
2023-03-21T18:22:05.213Z,15.80
2023-03-21T18:24:36.358Z,15.73
2023-03-21T18:27:07.175Z,15.60
2023-03-21T18:30:22.840Z,15.52
2023-03-21T18:32:28.683Z,15.35
2023-03-21T18:35:02.426Z,15.31
2023-03-21T18:37:32.117Z,15.24
2023-03-21T18:40:02.168Z,15.15
2023-03-21T18:42:31.941Z,15.09
2023-03-21T18:45:04.681Z,15.06
2023-03-21T18:47:34.632Z,14.97
2023-03-21T18:50:14.226Z,14.90
2023-03-21T18:52:44.009Z,14.79
2023-03-21T18:55:15.426Z,14.73
2023-03-21T18:57:45.772Z,14.66
2023-03-21T19:00:18.175Z,14.63
2023-03-21T19:02:50.762Z,14.56
2023-03-21T19:05:23.062Z,14.51
2023-03-21T19:07:53.877Z,14.42
2023-03-21T19:10:24.819Z,14.33
2023-03-21T19:12:55.468Z,14.25
2023-03-21T19:15:25.504Z,14.21
2023-03-21T19:20:47.887Z,14.05
2023-03-21T19:23:21.834Z,14.04
2023-03-21T19:25:51.109Z,14.02
2023-03-21T19:28:20.338Z,13.95
2023-03-21T19:30:50.861Z,13.89
2023-03-21T19:33:21.256Z,13.86
2023-03-21T19:36:08.893Z,13.72
2023-03-21T19:38:40.530Z,13.61
2023-03-21T19:41:09.604Z,13.60
2023-03-21T19:43:40.161Z,13.58
2023-03-21T19:46:11.754Z,13.52
2023-03-21T19:48:44.027Z,13.48
2023-03-21T19:51:27.592Z,13.46
2023-03-21T19:54:03.723Z,13.49
2023-03-21T19:56:34.542Z,13.53
2023-03-21T19:59:05.365Z,13.57
2023-03-21T20:01:35.518Z,13.52
2023-03-21T20:04:05.619Z,13.49
2023-03-21T20:06:36.049Z,13.47
2023-03-21T20:09:49.627Z,13.44
2023-03-21T20:12:01.301Z,13.28
2023-03-21T20:14:30.563Z,13.19
2023-03-21T20:17:00.322Z,13.11
2023-03-21T20:19:29.738Z,13.10
2023-03-21T20:22:02.714Z,13.14
2023-03-21T20:24:31.950Z,13.12
2023-03-21T20:27:01.207Z,13.05
2023-03-21T20:30:08.238Z,12.99
2023-03-21T20:32:21.841Z,12.87
2023-03-21T20:34:59.478Z,12.79
2023-03-21T20:37:35.500Z,12.71
2023-03-21T20:40:10.522Z,12.69
2023-03-21T20:42:43.577Z,12.66
2023-03-21T20:45:16.779Z,12.68
2023-03-21T20:47:47.593Z,12.70
2023-03-21T20:50:22.262Z,12.72
2023-03-21T20:53:06.430Z,12.66
2023-03-21T20:55:37.264Z,12.62
2023-03-21T20:58:27.190Z,12.60
2023-03-21T21:01:00.364Z,12.47
2023-03-21T21:03:29.694Z,12.38
2023-03-21T21:06:00.293Z,12.36
2023-03-21T21:08:31.033Z,12.32
2023-03-21T21:11:56.637Z,12.35
2023-03-21T21:13:49.941Z,12.31
2023-03-21T21:16:19.457Z,12.28
2023-03-21T21:18:49.733Z,12.32
2023-03-21T21:21:18.789Z,12.33
2023-03-21T21:23:48.877Z,12.35
2023-03-21T21:26:18.081Z,12.29
2023-03-21T21:28:48.343Z,12.23
2023-03-21T21:31:19.488Z,12.17
2023-03-21T21:33:50.520Z,12.17
2023-03-21T21:36:19.586Z,12.15
2023-03-21T21:38:49.767Z,12.16
2023-03-21T21:41:21.836Z,12.12
2023-03-21T21:43:51.592Z,12.04
2023-03-21T21:46:20.855Z,12.01
2023-03-21T21:48:50.143Z,11.96
2023-03-21T21:51:26.878Z,11.91
2023-03-21T21:53:57.589Z,11.83
2023-03-21T21:56:32.880Z,11.78
2023-03-21T21:59:03.118Z,11.75
2023-03-21T22:01:39.563Z,11.77
2023-03-21T22:04:11.982Z,11.81
2023-03-21T22:06:43.376Z,11.83
2023-03-21T22:09:14.645Z,11.77
2023-03-21T22:11:44.025Z,11.72
2023-03-21T22:14:13.963Z,11.65
2023-03-21T22:16:44.867Z,11.55
2023-03-21T22:19:15.024Z,11.48
2023-03-21T22:21:45.919Z,11.40
2023-03-21T22:24:16.240Z,11.36
2023-03-21T22:26:45.912Z,11.40
2023-03-21T22:29:14.943Z,11.34
2023-03-21T22:31:44.695Z,11.30
2023-03-21T22:34:14.103Z,11.29
2023-03-21T22:36:47.517Z,11.27
2023-03-21T22:39:21.742Z,11.24
2023-03-21T22:41:50.950Z,11.17
2023-03-21T22:44:19.887Z,11.14
2023-03-21T22:46:48.753Z,11.11
2023-03-21T22:49:17.657Z,11.10
2023-03-21T22:51:46.927Z,11.09
2023-03-21T22:54:15.769Z,11.01
2023-03-21T22:56:45.964Z,10.91
2023-03-21T22:59:16.710Z,10.83
2023-03-21T23:01:46.418Z,10.82
2023-03-21T23:04:16.660Z,10.84
2023-03-21T23:06:46.673Z,10.86
2023-03-21T23:09:16.776Z,10.88
2023-03-21T23:11:49.655Z,10.92
2023-03-21T23:14:21.469Z,10.99
2023-03-21T23:17:00.411Z,11.09
2023-03-21T23:19:29.790Z,11.08
2023-03-21T23:21:59.790Z,11.01
2023-03-21T23:24:29.064Z,10.97
2023-03-21T23:26:58.455Z,11.03
2023-03-21T23:29:27.964Z,11.08
2023-03-21T23:31:57.015Z,11.08
2023-03-21T23:34:26.065Z,11.11
2023-03-21T23:36:54.839Z,11.11
2023-03-21T23:39:23.627Z,11.08
2023-03-21T23:41:52.496Z,11.07
2023-03-21T23:44:21.529Z,11.10
2023-03-21T23:46:50.253Z,11.09
2023-03-21T23:49:19.409Z,10.99
2023-03-21T23:51:48.192Z,10.89
2023-03-21T23:54:17.386Z,10.83
2023-03-21T23:56:46.348Z,10.84
2023-03-21T23:59:15.406Z,10.80
